KMIA

Miami International Airport

Miami, Florida, USA
METAR KMIA 201553Z 12009KT 10SM SCT030 SCT250 32/25 A3010 RMK AO2 SLP194 T03170250
Observed Flight Rules
Aug-20 @ 15:53 UTC (32 minutes ago) Visual Flight Rules
Wind Visibility Clouds
120° at 9 knots 10 miles
  • Scattered at 3,000' AGL
  • Scattered at 25,000' AGL
Temperatures Readings
Current 32°C / 90°F
Dewpoint 25°C / 77°F
Humidity 67%
Altimeter 30.1" Hg
Pressure 1019.4 hPa
Elevation 3
METAR KMIA 201553Z 12009KT 10SM SCT030 SCT250 32/25 A3010 RMK AO2 SLP194 T03170250
Observed Flight Rules
Aug-20 @ 15:53 UTC
(32 minutes ago)
VFR
Wind Visibility
120° at 9 knots 10 miles
Clouds
  • Scattered at 3,000' AGL
  • Scattered at 25,000' AGL
Temperature Dewpoint
32°C / 90°F 25°C / 77°F
Humidity Altimeter Pressure
67% 30.1" Hg 1019.4 hPa